createdAt,value
2022-09-09T00:00:18.196Z,17.14
2022-09-09T00:02:54.095Z,17.14
2022-09-09T00:05:49.064Z,17.11
2022-09-09T00:08:21.900Z,17.09
2022-09-09T00:10:57.425Z,17.00
2022-09-09T00:13:31.658Z,17.07
2022-09-09T00:16:26.118Z,16.99
2022-09-09T00:19:05.357Z,16.98
2022-09-09T00:21:37.022Z,16.92
2022-09-09T00:24:26.877Z,16.80
2022-09-09T00:27:06.378Z,16.78
2022-09-09T00:29:54.918Z,16.73
2022-09-09T00:32:23.691Z,16.81
2022-09-09T00:34:58.197Z,16.83
2022-09-09T00:37:27.745Z,16.85
2022-09-09T00:40:01.217Z,16.83
2022-09-09T00:42:47.902Z,16.74
2022-09-09T00:45:16.505Z,16.85
2022-09-09T00:47:55.530Z,16.86
2022-09-09T00:50:42.270Z,16.80
2022-09-09T00:53:55.112Z,16.71
2022-09-09T00:56:30.095Z,16.63
2022-09-09T00:59:14.269Z,16.64
2022-09-09T01:01:42.903Z,16.53
2022-09-09T01:04:17.391Z,16.60
2022-09-09T01:06:53.713Z,16.60
2022-09-09T01:09:33.548Z,16.57
2022-09-09T01:12:16.545Z,16.54
2022-09-09T01:14:53.194Z,16.50
2022-09-09T01:17:34.744Z,16.55
2022-09-09T01:20:41.600Z,16.38
2022-09-09T01:23:28.410Z,16.36
2022-09-09T01:26:39.624Z,16.41
2022-09-09T01:29:14.606Z,16.47
2022-09-09T01:31:57.419Z,16.44
2022-09-09T01:34:41.127Z,16.32
2022-09-09T01:37:11.651Z,16.39
2022-09-09T01:39:44.448Z,16.28
2022-09-09T01:42:17.151Z,16.30
2022-09-09T01:44:45.371Z,16.23
2022-09-09T01:47:13.281Z,16.27
2022-09-09T01:50:20.766Z,16.29
2022-09-09T01:52:53.716Z,16.29
2022-09-09T01:55:37.170Z,16.28
2022-09-09T01:58:04.889Z,16.19
2022-09-09T02:00:36.664Z,16.24
2022-09-09T02:03:26.393Z,16.28
2022-09-09T02:06:02.438Z,16.31
2022-09-09T02:08:42.231Z,16.26
2022-09-09T02:11:18.800Z,16.28
2022-09-09T02:13:58.138Z,16.18
2022-09-09T02:16:38.160Z,16.19
2022-09-09T02:19:24.951Z,16.21
2022-09-09T02:22:07.523Z,16.17
2022-09-09T02:24:39.346Z,16.26
2022-09-09T02:27:17.732Z,16.25
2022-09-09T02:29:48.156Z,16.22
2022-09-09T02:32:25.242Z,16.14
2022-09-09T02:35:00.474Z,16.03
2022-09-09T02:37:34.549Z,16.04
2022-09-09T02:40:08.402Z,16.03
2022-09-09T02:42:46.690Z,16.03
2022-09-09T02:45:20.109Z,16.02
2022-09-09T02:47:56.180Z,15.96
2022-09-09T02:50:31.975Z,15.98
2022-09-09T02:53:22.668Z,15.96
2022-09-09T02:56:03.642Z,15.91
2022-09-09T02:58:33.400Z,15.93
2022-09-09T03:01:05.235Z,15.90
2022-09-09T03:03:33.122Z,15.85
2022-09-09T03:06:04.053Z,15.90
2022-09-09T03:08:31.307Z,15.89
2022-09-09T03:11:02.245Z,15.92
2022-09-09T03:13:31.860Z,15.92
2022-09-09T03:15:59.887Z,15.93
2022-09-09T03:18:29.746Z,15.90
2022-09-09T03:20:59.208Z,15.86
2022-09-09T03:23:26.548Z,15.81
2022-09-09T03:25:55.898Z,15.73
2022-09-09T03:28:32.421Z,15.71
2022-09-09T03:31:04.164Z,15.69
2022-09-09T03:33:37.459Z,15.60
2022-09-09T03:36:09.357Z,15.63
2022-09-09T03:38:37.405Z,15.65
2022-09-09T03:41:07.283Z,15.58
2022-09-09T03:43:35.043Z,15.61
2022-09-09T03:46:02.682Z,15.67
2022-09-09T03:48:30.936Z,15.71
2022-09-09T03:51:01.880Z,15.75
2022-09-09T03:53:34.433Z,15.73
2022-09-09T03:56:04.316Z,15.70
2022-09-09T03:58:32.274Z,15.61
2022-09-09T04:01:09.811Z,15.70
2022-09-09T04:03:38.669Z,15.74
2022-09-09T04:06:08.626Z,15.79
2022-09-09T04:08:36.870Z,15.94
2022-09-09T04:11:07.524Z,15.89
2022-09-09T04:13:38.714Z,15.89
2022-09-09T04:16:08.090Z,15.91
2022-09-09T04:18:37.403Z,15.90
2022-09-09T04:21:06.285Z,15.89
2022-09-09T04:23:35.481Z,15.94
2022-09-09T04:26:03.536Z,16.04
2022-09-09T04:28:34.153Z,16.05
2022-09-09T04:31:31.704Z,15.99
2022-09-09T04:33:58.982Z,16.16
2022-09-09T04:36:27.191Z,16.25
2022-09-09T04:38:59.119Z,16.22
2022-09-09T04:41:26.515Z,16.33
2022-09-09T04:43:54.853Z,16.48
2022-09-09T04:46:23.933Z,16.47
2022-09-09T04:48:53.719Z,16.54
2022-09-09T04:51:22.235Z,16.55
2022-09-09T04:53:51.865Z,16.61
2022-09-09T04:56:20.262Z,16.66
2022-09-09T04:58:57.175Z,16.74
2022-09-09T05:01:33.465Z,16.90
2022-09-09T05:04:04.073Z,17.01
2022-09-09T05:06:33.600Z,17.04
2022-09-09T05:09:01.812Z,17.24
2022-09-09T05:11:33.431Z,17.38
2022-09-09T05:14:13.197Z,17.45
2022-09-09T05:16:41.112Z,17.47
2022-09-09T05:19:09.260Z,17.53
2022-09-09T05:21:44.834Z,17.64
2022-09-09T05:24:13.408Z,17.74
2022-09-09T05:26:41.561Z,17.87
2022-09-09T05:29:09.462Z,18.00
2022-09-09T05:31:37.896Z,18.04
2022-09-09T05:34:09.886Z,18.16
2022-09-09T05:36:37.176Z,18.18
2022-09-09T05:39:05.009Z,18.29
2022-09-09T05:41:34.231Z,18.50
2022-09-09T05:44:03.403Z,18.59
2022-09-09T05:46:31.920Z,18.68
2022-09-09T05:48:59.582Z,18.77
2022-09-09T05:51:34.054Z,18.90
2022-09-09T05:54:07.338Z,18.98
2022-09-09T05:56:38.582Z,18.98
2022-09-09T05:59:08.303Z,19.09
2022-09-09T06:01:41.694Z,19.16
2022-09-09T06:04:14.579Z,19.25
2022-09-09T06:06:43.116Z,19.42
2022-09-09T06:09:14.612Z,19.60
2022-09-09T06:11:44.690Z,19.75
2022-09-09T06:14:13.335Z,19.81
2022-09-09T06:16:45.276Z,19.95
2022-09-09T06:19:21.663Z,20.02
2022-09-09T06:21:50.264Z,20.16
2022-09-09T06:24:20.447Z,20.27
2022-09-09T06:26:47.785Z,20.41
2022-09-09T06:29:22.086Z,20.52
2022-09-09T06:31:49.665Z,20.67
2022-09-09T06:34:21.921Z,20.83
2022-09-09T06:36:53.289Z,21.05
2022-09-09T06:39:20.715Z,20.99
2022-09-09T06:41:48.367Z,21.25
2022-09-09T06:44:35.560Z,21.35
2022-09-09T06:47:05.211Z,21.52
2022-09-09T06:49:34.040Z,21.72
2022-09-09T06:52:02.998Z,21.86
2022-09-09T06:54:30.726Z,21.96
2022-09-09T06:56:58.635Z,22.15
2022-09-09T06:59:26.677Z,22.30
2022-09-09T07:01:56.614Z,22.46
2022-09-09T07:04:26.325Z,22.59
2022-09-09T07:06:53.833Z,22.74
2022-09-09T07:09:26.102Z,22.90
2022-09-09T07:11:54.653Z,23.06
2022-09-09T07:14:24.908Z,23.14
2022-09-09T07:16:59.510Z,23.22
2022-09-09T07:19:28.252Z,23.40
2022-09-09T07:21:57.095Z,23.59
2022-09-09T07:24:25.697Z,23.70
2022-09-09T07:26:53.293Z,23.88
2022-09-09T07:29:21.498Z,23.98
2022-09-09T07:31:50.943Z,24.08
2022-09-09T07:34:23.875Z,24.19
2022-09-09T07:36:52.457Z,24.31
2022-09-09T07:39:20.341Z,24.51
2022-09-09T07:41:52.166Z,24.67
2022-09-09T07:44:25.974Z,24.74
2022-09-09T07:47:06.798Z,24.85
2022-09-09T07:49:38.356Z,24.98
2022-09-09T07:54:46.277Z,25.31
2022-09-09T07:57:16.375Z,25.46
2022-09-09T07:59:43.720Z,25.67
2022-09-09T08:02:11.197Z,25.75
2022-09-09T08:04:38.551Z,25.79
2022-09-09T08:07:07.867Z,25.86
2022-09-09T08:09:41.828Z,25.96
2022-09-09T08:12:16.112Z,26.14
2022-09-09T08:14:43.894Z,26.27
2022-09-09T08:17:11.008Z,26.42
2022-09-09T08:19:38.970Z,26.55
2022-09-09T08:22:14.027Z,26.61
2022-09-09T08:24:41.927Z,26.78
2022-09-09T08:27:11.081Z,26.87
2022-09-09T08:29:39.436Z,26.99
2022-09-09T08:32:07.454Z,27.05
2022-09-09T08:34:41.266Z,27.18
2022-09-09T08:37:13.133Z,27.24
2022-09-09T08:39:42.125Z,27.28
2022-09-09T08:42:38.489Z,27.40
2022-09-09T08:45:21.143Z,27.49
2022-09-09T08:48:16.551Z,27.57
2022-09-09T08:50:44.481Z,27.62
2022-09-09T08:53:26.217Z,27.71
2022-09-09T08:56:00.496Z,27.83
2022-09-09T08:58:51.083Z,27.86
2022-09-09T09:02:21.019Z,27.99
2022-09-09T09:05:00.134Z,28.05
2022-09-09T09:08:14.193Z,28.15
2022-09-09T09:10:49.717Z,28.16
2022-09-09T09:13:43.640Z,28.23
2022-09-09T09:16:44.570Z,28.29
2022-09-09T09:19:17.242Z,28.42
2022-09-09T09:21:58.872Z,28.47
2022-09-09T09:25:00.921Z,28.57
2022-09-09T09:27:41.302Z,28.51
2022-09-09T09:30:28.510Z,28.67
2022-09-09T09:33:17.564Z,28.68
2022-09-09T09:35:45.433Z,28.76
2022-09-09T09:41:11.648Z,28.84
2022-09-09T09:43:43.764Z,28.91
2022-09-09T09:46:25.243Z,28.98
2022-09-09T09:49:15.080Z,29.04
2022-09-09T09:51:44.222Z,29.15
2022-09-09T09:54:28.813Z,29.22
2022-09-09T09:57:13.918Z,29.28
2022-09-09T09:59:44.046Z,29.41
2022-09-09T10:02:27.837Z,29.51
2022-09-09T10:05:28.012Z,29.55
2022-09-09T10:08:13.389Z,29.65
2022-09-09T10:10:50.102Z,29.72
2022-09-09T10:13:59.419Z,29.72
2022-09-09T10:16:53.542Z,29.87
2022-09-09T10:19:34.757Z,29.96
2022-09-09T10:22:04.978Z,29.96
2022-09-09T10:24:47.432Z,30.05
2022-09-09T10:27:14.871Z,30.09
2022-09-09T10:30:03.544Z,30.16
2022-09-09T10:32:48.377Z,30.22
2022-09-09T10:35:27.392Z,30.18
2022-09-09T10:38:18.822Z,30.20
2022-09-09T10:40:46.110Z,30.23
2022-09-09T10:43:25.267Z,30.22
2022-09-09T10:46:01.578Z,30.29
2022-09-09T10:48:36.470Z,30.35
2022-09-09T10:51:12.358Z,30.44
2022-09-09T10:53:53.290Z,30.25
2022-09-09T10:56:22.144Z,30.29
2022-09-09T10:59:17.577Z,30.39
2022-09-09T11:01:51.009Z,30.32
2022-09-09T11:04:26.956Z,30.29
2022-09-09T11:06:56.895Z,30.45
2022-09-09T11:09:30.435Z,30.51
2022-09-09T11:11:59.477Z,30.46
2022-09-09T11:14:37.366Z,30.62
2022-09-09T11:17:15.870Z,30.67
2022-09-09T11:19:44.994Z,30.72
2022-09-09T11:22:27.279Z,30.78
2022-09-09T11:25:05.018Z,30.78
2022-09-09T11:28:10.671Z,30.71
2022-09-09T11:31:07.277Z,30.76
2022-09-09T11:34:13.386Z,30.82
2022-09-09T11:36:49.498Z,30.79
2022-09-09T11:39:32.029Z,30.76
2022-09-09T11:42:24.819Z,30.81
2022-09-09T11:44:53.816Z,30.88
2022-09-09T11:47:32.375Z,31.02
2022-09-09T11:50:29.086Z,31.12
2022-09-09T11:53:25.671Z,31.13
2022-09-09T11:56:05.951Z,31.17
2022-09-09T11:58:41.663Z,31.23
2022-09-09T12:01:28.505Z,31.17
2022-09-09T12:04:18.577Z,31.20
2022-09-09T12:07:04.197Z,31.10
2022-09-09T12:09:46.485Z,31.05
2022-09-09T12:12:13.486Z,31.14
2022-09-09T12:14:46.541Z,31.03
2022-09-09T12:17:16.887Z,31.10
2022-09-09T12:19:44.083Z,31.24
2022-09-09T12:22:18.783Z,31.28
2022-09-09T12:25:30.904Z,31.24
2022-09-09T12:28:21.547Z,31.23
2022-09-09T12:31:11.395Z,31.17
2022-09-09T12:33:46.401Z,31.09
2022-09-09T12:36:18.897Z,31.10
2022-09-09T12:38:47.408Z,31.21
2022-09-09T12:41:28.747Z,31.28
2022-09-09T12:44:07.193Z,31.24
2022-09-09T12:46:54.178Z,31.35
2022-09-09T12:49:28.385Z,31.43
2022-09-09T12:51:58.472Z,31.48
2022-09-09T12:54:25.958Z,31.57
2022-09-09T12:56:53.345Z,31.57
2022-09-09T12:59:36.666Z,31.64
2022-09-09T13:02:12.764Z,31.75
2022-09-09T13:04:40.480Z,31.61
2022-09-09T13:07:11.054Z,31.64
2022-09-09T13:09:39.055Z,31.67
2022-09-09T13:12:12.183Z,31.67
2022-09-09T13:14:39.811Z,31.68
2022-09-09T13:17:08.468Z,31.56
2022-09-09T13:19:40.093Z,31.50
2022-09-09T13:22:15.794Z,31.49
2022-09-09T13:24:43.826Z,31.41
2022-09-09T13:27:32.310Z,31.47
2022-09-09T13:30:00.645Z,31.52
2022-09-09T13:32:29.273Z,31.68
2022-09-09T13:35:03.909Z,31.67
2022-09-09T13:37:37.630Z,31.49
2022-09-09T13:40:07.717Z,31.48
2022-09-09T13:42:40.259Z,31.38
2022-09-09T13:45:17.413Z,31.36
2022-09-09T13:47:45.087Z,31.13
2022-09-09T13:50:22.458Z,31.02
2022-09-09T13:52:57.211Z,30.89
2022-09-09T13:55:26.170Z,30.62
2022-09-09T13:57:53.599Z,30.47
2022-09-09T14:00:21.771Z,30.36
2022-09-09T14:02:50.006Z,30.39
2022-09-09T14:05:20.882Z,30.24
2022-09-09T14:07:52.524Z,30.13
2022-09-09T14:10:20.983Z,29.99
2022-09-09T14:12:48.403Z,29.91
2022-09-09T14:15:16.282Z,29.81
2022-09-09T14:17:43.720Z,29.73
2022-09-09T14:20:13.006Z,29.76
2022-09-09T14:22:40.486Z,29.67
2022-09-09T14:25:08.096Z,29.68
2022-09-09T14:27:35.510Z,29.72
2022-09-09T14:30:03.017Z,29.78
2022-09-09T14:32:30.313Z,29.74
2022-09-09T14:34:57.637Z,29.64
2022-09-09T14:37:25.264Z,29.56
2022-09-09T14:39:52.633Z,29.49
2022-09-09T14:42:19.992Z,29.39
2022-09-09T14:44:47.629Z,29.38
2022-09-09T14:47:14.749Z,29.45
2022-09-09T14:49:45.080Z,29.40
2022-09-09T14:52:14.433Z,29.32
2022-09-09T14:54:41.620Z,29.34
2022-09-09T14:57:08.748Z,29.31
2022-09-09T14:59:36.367Z,29.27
2022-09-09T15:02:05.342Z,29.19
2022-09-09T15:04:32.991Z,29.18
2022-09-09T15:07:00.478Z,29.13
2022-09-09T15:09:27.978Z,29.07
2022-09-09T15:11:55.227Z,29.04
2022-09-09T15:14:25.307Z,29.10
2022-09-09T15:16:53.203Z,29.15
2022-09-09T15:19:20.322Z,29.14
2022-09-09T15:21:47.549Z,29.14
2022-09-09T15:24:14.826Z,29.10
2022-09-09T15:26:42.214Z,29.04
2022-09-09T15:29:09.593Z,29.00
2022-09-09T15:31:37.048Z,28.97
2022-09-09T15:34:06.478Z,28.87
2022-09-09T15:36:36.633Z,28.75
2022-09-09T15:39:07.161Z,28.67
2022-09-09T15:41:34.992Z,28.62
2022-09-09T15:44:02.601Z,28.57
2022-09-09T15:46:39.984Z,28.53
2022-09-09T15:49:07.223Z,28.46
2022-09-09T15:51:43.275Z,28.38
2022-09-09T15:54:18.039Z,28.26
2022-09-09T15:56:47.616Z,28.18
2022-09-09T15:59:15.818Z,28.18
2022-09-09T16:01:45.083Z,28.13
2022-09-09T16:04:13.147Z,28.12
2022-09-09T16:06:40.427Z,28.00
2022-09-09T16:09:08.902Z,27.96
2022-09-09T16:11:38.763Z,27.89
2022-09-09T16:14:07.747Z,27.74
2022-09-09T16:16:36.461Z,27.75
2022-09-09T16:19:07.653Z,27.65
2022-09-09T16:21:36.515Z,27.43
2022-09-09T16:24:05.649Z,27.44
2022-09-09T16:26:34.872Z,27.30
2022-09-09T16:29:03.810Z,27.27
2022-09-09T16:31:35.095Z,27.29
2022-09-09T16:34:04.368Z,27.24
2022-09-09T16:36:35.282Z,27.28
2022-09-09T16:39:10.215Z,27.26
2022-09-09T16:41:38.300Z,27.22
2022-09-09T16:44:07.662Z,27.20
2022-09-09T16:46:40.912Z,27.15
2022-09-09T16:49:14.286Z,27.06
2022-09-09T16:51:48.126Z,27.05
2022-09-09T16:54:18.090Z,27.00
2022-09-09T16:56:47.493Z,26.96
2022-09-09T16:59:17.311Z,26.91
2022-09-09T17:01:46.903Z,26.92
2022-09-09T17:04:21.542Z,26.95
2022-09-09T17:06:51.074Z,26.95
2022-09-09T17:09:19.485Z,26.94
2022-09-09T17:11:48.320Z,26.97
2022-09-09T17:14:19.396Z,26.96
2022-09-09T17:16:47.177Z,27.02
2022-09-09T17:19:15.893Z,27.03
2022-09-09T17:22:06.007Z,26.95
2022-09-09T17:24:30.774Z,26.86
2022-09-09T17:26:58.919Z,26.83
2022-09-09T17:29:26.789Z,26.75
2022-09-09T17:31:56.038Z,26.72
2022-09-09T17:34:23.533Z,26.67
2022-09-09T17:36:51.153Z,26.59
2022-09-09T17:39:18.326Z,26.52
2022-09-09T17:41:46.506Z,26.49
2022-09-09T17:44:13.634Z,26.43
2022-09-09T17:46:42.791Z,26.39
2022-09-09T17:49:15.654Z,26.38
2022-09-09T17:51:43.969Z,26.41
2022-09-09T17:54:17.384Z,26.33
2022-09-09T17:56:45.349Z,26.33
2022-09-09T17:59:14.475Z,26.34
2022-09-09T18:01:45.211Z,26.34
2022-09-09T18:04:14.393Z,26.30
2022-09-09T18:06:44.117Z,26.32
2022-09-09T18:09:14.967Z,26.29
2022-09-09T18:11:45.748Z,26.24
2022-09-09T18:14:17.593Z,26.23
2022-09-09T18:16:45.693Z,26.22
2022-09-09T18:19:15.370Z,26.16
2022-09-09T18:21:44.602Z,26.14
2022-09-09T18:24:13.760Z,26.01
2022-09-09T18:26:43.038Z,26.08
2022-09-09T18:29:12.981Z,26.03
2022-09-09T18:31:42.497Z,25.97
2022-09-09T18:34:12.560Z,25.96
2022-09-09T18:36:48.396Z,25.93
2022-09-09T18:39:17.969Z,25.89
2022-09-09T18:41:47.880Z,25.88
2022-09-09T18:44:21.969Z,25.80
2022-09-09T18:46:52.626Z,25.83
2022-09-09T18:49:21.863Z,25.83
2022-09-09T18:51:49.677Z,25.79
2022-09-09T18:54:23.028Z,25.78
2022-09-09T18:56:50.835Z,25.78
2022-09-09T18:59:20.440Z,25.81
2022-09-09T19:01:50.533Z,25.71
2022-09-09T19:04:19.539Z,25.61
2022-09-09T19:06:48.726Z,25.53
2022-09-09T19:09:18.755Z,25.42
2022-09-09T19:11:46.927Z,25.38
2022-09-09T19:14:16.618Z,25.35
2022-09-09T19:16:45.448Z,25.28
2022-09-09T19:19:17.556Z,25.15
2022-09-09T19:21:45.559Z,25.10
2022-09-09T19:24:16.484Z,25.07
2022-09-09T19:26:46.653Z,25.01
2022-09-09T19:29:22.725Z,25.00
2022-09-09T19:32:29.422Z,25.02
2022-09-09T19:34:38.829Z,25.01
2022-09-09T19:37:05.807Z,24.96
2022-09-09T19:39:34.631Z,24.96
2022-09-09T19:42:02.187Z,24.94
2022-09-09T19:44:29.493Z,24.87
2022-09-09T19:46:57.354Z,24.93
2022-09-09T19:49:25.386Z,24.78
2022-09-09T19:51:52.648Z,24.84
2022-09-09T19:54:19.688Z,24.74
2022-09-09T19:56:46.846Z,24.67
2022-09-09T19:59:15.670Z,24.70
2022-09-09T20:01:44.881Z,24.71
2022-09-09T20:04:13.828Z,24.72
2022-09-09T20:06:45.488Z,24.61
2022-09-09T20:09:15.691Z,24.42
2022-09-09T20:11:45.539Z,24.37
2022-09-09T20:14:13.015Z,24.27
2022-09-09T20:16:40.338Z,24.19
2022-09-09T20:19:11.391Z,24.21
2022-09-09T20:21:42.768Z,24.05
2022-09-09T20:24:15.195Z,24.02
2022-09-09T20:26:45.102Z,23.98
2022-09-09T20:29:16.379Z,23.96
2022-09-09T20:31:45.074Z,23.89
2022-09-09T20:34:18.904Z,23.86
2022-09-09T20:36:47.224Z,23.91
2022-09-09T20:39:22.561Z,23.86
2022-09-09T20:41:50.400Z,23.86
2022-09-09T20:44:25.958Z,23.89
2022-09-09T20:47:00.192Z,23.93
2022-09-09T20:49:28.023Z,23.91
2022-09-09T20:52:01.175Z,24.07
2022-09-09T20:54:32.355Z,24.03
2022-09-09T20:57:27.331Z,24.08
2022-09-09T20:59:54.779Z,24.00
2022-09-09T21:02:22.032Z,24.01
2022-09-09T21:04:49.621Z,24.03
2022-09-09T21:07:19.778Z,23.97
2022-09-09T21:09:46.997Z,23.98
2022-09-09T21:12:14.023Z,23.89
2022-09-09T21:14:41.228Z,23.83
2022-09-09T21:17:08.398Z,23.69
2022-09-09T21:19:35.695Z,23.61
2022-09-09T21:22:03.070Z,23.54
2022-09-09T21:24:30.151Z,23.46
2022-09-09T21:26:57.262Z,23.44
2022-09-09T21:29:24.334Z,23.36
2022-09-09T21:31:51.501Z,23.27
2022-09-09T21:34:18.635Z,23.20
2022-09-09T21:36:45.835Z,23.17
2022-09-09T21:39:12.988Z,23.14
2022-09-09T21:41:40.243Z,23.06
2022-09-09T21:44:09.132Z,23.00
2022-09-09T21:46:37.601Z,22.92
2022-09-09T21:49:04.819Z,22.92
2022-09-09T21:51:31.944Z,22.84
2022-09-09T21:53:59.091Z,22.78
2022-09-09T21:56:26.980Z,22.83
2022-09-09T21:58:59.099Z,22.74
2022-09-09T22:01:26.671Z,22.63
2022-09-09T22:03:54.130Z,22.58
2022-09-09T22:06:21.419Z,22.48
2022-09-09T22:08:48.648Z,22.43
2022-09-09T22:11:18.962Z,22.32
2022-09-09T22:13:46.273Z,22.21
2022-09-09T22:16:16.858Z,22.21
2022-09-09T22:18:44.622Z,22.14
2022-09-09T22:21:17.001Z,22.09
2022-09-09T22:23:44.333Z,22.06
2022-09-09T22:26:11.526Z,21.96
2022-09-09T22:28:39.079Z,21.92
2022-09-09T22:31:06.703Z,21.94
2022-09-09T22:33:34.862Z,21.85
2022-09-09T22:36:02.150Z,21.79
2022-09-09T22:38:29.467Z,21.67
2022-09-09T22:40:56.639Z,21.59
2022-09-09T22:43:23.964Z,21.46
2022-09-09T22:45:51.233Z,21.51
2022-09-09T22:48:18.902Z,21.43
2022-09-09T22:50:47.218Z,21.42
2022-09-09T22:53:16.406Z,21.30
2022-09-09T22:55:54.482Z,21.24
2022-09-09T22:58:22.574Z,21.19
2022-09-09T23:00:49.601Z,21.07
2022-09-09T23:03:17.028Z,21.01
2022-09-09T23:05:53.762Z,20.98
2022-09-09T23:08:22.924Z,20.90
2022-09-09T23:10:49.982Z,20.80
2022-09-09T23:13:17.077Z,20.76
2022-09-09T23:15:47.067Z,20.82
2022-09-09T23:18:14.766Z,20.78
2022-09-09T23:20:43.192Z,20.69
2022-09-09T23:23:13.402Z,20.63
2022-09-09T23:25:40.547Z,20.47
2022-09-09T23:28:07.930Z,20.47
2022-09-09T23:30:34.974Z,20.41
2022-09-09T23:33:02.544Z,20.48
2022-09-09T23:35:29.665Z,20.33
2022-09-09T23:37:57.679Z,20.37
2022-09-09T23:40:25.367Z,20.26
2022-09-09T23:42:55.344Z,20.18
2022-09-09T23:45:22.446Z,20.14
2022-09-09T23:47:49.616Z,20.17
2022-09-09T23:50:17.805Z,20.16
2022-09-09T23:52:46.345Z,20.08
2022-09-09T23:55:13.361Z,20.03
2022-09-09T23:57:40.640Z,19.97
